Time;durP1;ratioP1;P1;durP2;ratioP2;P2;SDS_P1;SDS_P2;PMS_P1;PMS_P2;Temp;Humidity;BMP_temperature;BMP_pressure;BME280_temperature;BME280_humidity;BME280_pressure;Samples;Min_cycle;Max_cycle;Signal;HPM_P1;HPM_P2
2022/01/25 00:08:48;;;;;;;59.35;26.58;;;;;;;;;;10485748;28;20049;-71
2022/01/25 00:24:50;;;;;;;61.42;27.33;;;;;;;;;;10485893;28;20048;-71
2022/01/25 00:30:00;;;;;;;61.00;25.63;;;;;;;;;;10485568;28;20048;-71
2022/01/25 00:35:04;;;;;;;61.33;26.77;;;;;;;;;;10491763;28;20049;-71
2022/01/25 00:40:08;;;;;;;63.45;27.70;;;;;;;;;;10480695;28;20065;-71
2022/01/25 00:45:12;;;;;;;56.92;25.33;;;;;;;;;;10480889;28;20244;-71
2022/01/25 00:50:16;;;;;;;56.55;25.02;;;;;;;;;;10480188;28;20041;-72
2022/01/25 00:55:18;;;;;;;55.50;24.17;;;;;;;;;;10479902;28;20045;-72
2022/01/25 01:00:21;;;;;;;52.80;23.45;;;;;;;;;;10478861;28;20086;-72
2022/01/25 01:05:25;;;;;;;54.13;23.77;;;;;;;;;;10479604;28;20056;-72
2022/01/25 01:10:27;;;;;;;52.58;22.70;;;;;;;;;;10479630;28;20048;-72
2022/01/25 01:15:36;;;;;;;42.42;19.92;;;;;;;;;;10479142;28;20041;-72
2022/01/25 01:31:27;;;;;;;38.90;22.63;;;;;;;;;;10487187;28;20041;-72
2022/01/25 01:47:22;;;;;;;17.73;9.95;;;;;;;;;;10470788;28;20102;-72
2022/01/25 01:52:27;;;;;;;17.15;9.95;;;;;;;;;;10477045;28;20055;-72
2022/01/25 01:57:30;;;;;;;21.13;13.90;;;;;;;;;;10479092;28;20045;-72
2022/01/25 02:02:32;;;;;;;22.52;11.52;;;;;;;;;;10476573;28;20244;-72
2022/01/25 02:07:36;;;;;;;17.83;10.90;;;;;;;;;;10477267;28;20041;-72
2022/01/25 02:12:40;;;;;;;21.15;11.95;;;;;;;;;;10476931;28;20047;-72
2022/01/25 02:17:59;;;;;;;22.35;13.45;;;;;;;;;;10477001;28;20041;-72
2022/01/25 02:23:14;;;;;;;19.58;12.68;;;;;;;;;;10490427;28;20044;-72
2022/01/25 02:28:17;;;;;;;30.33;20.95;;;;;;;;;;10475684;28;20048;-72
2022/01/25 02:33:20;;;;;;;20.77;14.35;;;;;;;;;;10476991;28;20079;-72
2022/01/25 02:38:27;;;;;;;19.30;11.68;;;;;;;;;;10476395;28;20076;-72
2022/01/25 02:43:30;;;;;;;19.25;11.60;;;;;;;;;;10491568;28;20301;-72
2022/01/25 02:48:47;;;;;;;21.92;11.98;;;;;;;;;;10474519;28;20100;-72
2022/01/25 02:53:50;;;;;;;20.40;11.75;;;;;;;;;;10490266;28;20049;-72
2022/01/25 02:58:53;;;;;;;18.95;11.50;;;;;;;;;;10474785;28;20053;-72
2022/01/25 03:03:56;;;;;;;17.48;10.63;;;;;;;;;;10474935;28;20037;-71
2022/01/25 03:09:00;;;;;;;18.08;11.02;;;;;;;;;;10474602;28;20042;-72
2022/01/25 03:14:08;;;;;;;21.95;11.98;;;;;;;;;;10474268;28;20048;-72
2022/01/25 03:24:30;;;;;;;24.65;13.18;;;;;;;;;;10485975;28;20048;-71
2022/01/25 03:29:33;;;;;;;25.30;12.90;;;;;;;;;;10469708;28;20060;-72
2022/01/25 03:34:36;;;;;;;25.05;13.50;;;;;;;;;;10473390;28;20292;-72
2022/01/25 03:39:40;;;;;;;28.05;14.55;;;;;;;;;;10472958;28;20065;-71
2022/01/25 03:44:44;;;;;;;27.27;15.15;;;;;;;;;;10473404;28;20325;-71
2022/01/25 03:49:50;;;;;;;26.15;14.30;;;;;;;;;;10472348;28;20049;-71
2022/01/25 03:54:54;;;;;;;33.35;17.23;;;;;;;;;;10486651;28;20052;-71
2022/01/25 03:59:59;;;;;;;38.88;18.88;;;;;;;;;;10472452;28;20052;-71
2022/01/25 04:05:02;;;;;;;44.87;20.53;;;;;;;;;;10445294;28;20068;-71
2022/01/25 04:10:06;;;;;;;33.72;14.00;;;;;;;;;;10479463;28;20045;-71
2022/01/25 04:15:09;;;;;;;31.73;15.70;;;;;;;;;;10471074;28;20044;-71
2022/01/25 04:20:17;;;;;;;26.40;14.05;;;;;;;;;;10481116;28;20041;-72
2022/01/25 04:25:21;;;;;;;33.55;14.88;;;;;;;;;;10495226;28;20041;-71
2022/01/25 04:30:24;;;;;;;30.83;13.90;;;;;;;;;;10481733;28;20048;-71
2022/01/25 04:35:42;;;;;;;27.38;13.40;;;;;;;;;;10481015;28;20170;-72
2022/01/25 04:57:07;;;;;;;27.77;14.38;;;;;;;;;;10453448;28;20041;-71
2022/01/25 05:02:14;;;;;;;25.05;12.85;;;;;;;;;;10472607;28;20102;-72
2022/01/25 05:07:23;;;;;;;28.33;13.48;;;;;;;;;;10492877;28;20248;-71
2022/01/25 05:12:38;;;;;;;28.58;13.75;;;;;;;;;;10493085;28;20105;-71
2022/01/25 05:17:44;;;;;;;24.88;12.75;;;;;;;;;;10493345;28;20045;-72
2022/01/25 05:22:47;;;;;;;29.20;13.85;;;;;;;;;;10491770;28;20328;-72
2022/01/25 05:27:51;;;;;;;26.10;13.25;;;;;;;;;;10478956;28;20292;-72
2022/01/25 05:32:53;;;;;;;26.00;14.45;;;;;;;;;;10477976;28;20052;-72
2022/01/25 05:37:56;;;;;;;27.33;14.48;;;;;;;;;;10477787;28;20052;-71
2022/01/25 05:48:21;;;;;;;32.08;17.02;;;;;;;;;;10490748;28;20041;-71
2022/01/25 05:53:23;;;;;;;41.67;23.30;;;;;;;;;;10477162;28;20063;-71
2022/01/25 05:58:27;;;;;;;61.90;36.28;;;;;;;;;;10477945;28;20052;-71
2022/01/25 06:03:30;;;;;;;44.10;24.55;;;;;;;;;;10476834;28;20078;-72
2022/01/25 06:08:32;;;;;;;80.75;28.35;;;;;;;;;;10476467;28;20056;-72
2022/01/25 06:13:35;;;;;;;47.60;22.40;;;;;;;;;;10474546;28;20045;-72
2022/01/25 06:18:38;;;;;;;35.63;19.38;;;;;;;;;;10476328;28;20060;-72
2022/01/25 06:23:40;;;;;;;38.75;20.30;;;;;;;;;;10475851;28;20333;-72
2022/01/25 06:28:44;;;;;;;41.08;22.88;;;;;;;;;;10474712;28;20234;-72
2022/01/25 06:33:48;;;;;;;41.95;20.70;;;;;;;;;;10476088;28;20047;-71
2022/01/25 06:38:50;;;;;;;38.50;21.38;;;;;;;;;;10475202;28;20071;-73
2022/01/25 06:43:54;;;;;;;35.78;18.95;;;;;;;;;;10474097;28;20091;-69
2022/01/25 06:48:57;;;;;;;33.88;15.40;;;;;;;;;;10474085;28;20380;-70
2022/01/25 06:53:59;;;;;;;31.83;15.95;;;;;;;;;;10475085;28;20049;-71
2022/01/25 06:59:03;;;;;;;31.13;16.50;;;;;;;;;;10475843;28;20044;-70
2022/01/25 07:04:05;;;;;;;27.98;14.45;;;;;;;;;;10472158;28;20060;-68
2022/01/25 07:09:08;;;;;;;33.13;18.10;;;;;;;;;;10475744;28;20049;-69
2022/01/25 07:14:12;;;;;;;38.45;20.40;;;;;;;;;;10474686;28;20048;-70
2022/01/25 07:19:15;;;;;;;41.85;18.50;;;;;;;;;;10474594;28;20045;-69
2022/01/25 07:24:17;;;;;;;34.05;16.48;;;;;;;;;;10473685;28;20118;-70
2022/01/25 07:29:21;;;;;;;40.35;20.63;;;;;;;;;;10474102;28;20083;-69
2022/01/25 07:34:24;;;;;;;43.67;20.10;;;;;;;;;;10474791;28;20049;-69
2022/01/25 07:39:28;;;;;;;39.15;17.45;;;;;;;;;;10473563;28;20065;-68
2022/01/25 07:44:36;;;;;;;37.55;18.95;;;;;;;;;;10471732;28;20056;-66
2022/01/25 07:49:38;;;;;;;33.63;17.35;;;;;;;;;;10447404;28;20209;-68
2022/01/25 07:54:42;;;;;;;43.72;19.80;;;;;;;;;;10475201;28;20099;-65
2022/01/25 07:59:45;;;;;;;37.88;20.42;;;;;;;;;;10472588;28;20041;-69
2022/01/25 08:04:48;;;;;;;39.45;19.60;;;;;;;;;;10474866;28;20041;-71
2022/01/25 08:09:50;;;;;;;44.67;23.25;;;;;;;;;;10474365;28;20348;-68
2022/01/25 08:14:57;;;;;;;37.95;17.83;;;;;;;;;;10473060;28;20049;-68
2022/01/25 08:19:59;;;;;;;47.28;20.60;;;;;;;;;;10486695;28;20053;-70
2022/01/25 08:25:02;;;;;;;37.03;19.15;;;;;;;;;;10472462;28;20063;-70
2022/01/25 08:30:07;;;;;;;44.83;19.23;;;;;;;;;;10473695;28;20209;-70
2022/01/25 08:35:10;;;;;;;37.10;18.90;;;;;;;;;;10473601;28;20056;-71
2022/01/25 08:40:13;;;;;;;46.30;21.50;;;;;;;;;;10473252;28;20363;-70
2022/01/25 08:45:17;;;;;;;46.58;22.73;;;;;;;;;;10470718;28;20041;-71
2022/01/25 08:50:20;;;;;;;39.97;19.50;;;;;;;;;;10472619;28;20056;-72
2022/01/25 08:55:22;;;;;;;38.45;19.23;;;;;;;;;;10476887;28;20037;-66
2022/01/25 09:00:26;;;;;;;28.77;16.38;;;;;;;;;;10481775;28;20055;-70
2022/01/25 09:05:28;;;;;;;31.83;16.65;;;;;;;;;;10480808;28;20048;-70
2022/01/25 09:10:31;;;;;;;36.35;20.85;;;;;;;;;;10471341;28;20040;-71
2022/01/25 09:15:34;;;;;;;32.83;15.88;;;;;;;;;;10479527;28;20248;-70
2022/01/25 09:20:37;;;;;;;31.98;17.58;;;;;;;;;;10480347;28;20067;-69
2022/01/25 09:25:39;;;;;;;29.25;16.40;;;;;;;;;;10479045;28;20379;-72
2022/01/25 09:30:44;;;;;;;32.10;17.10;;;;;;;;;;10473497;28;20041;-71
2022/01/25 09:35:47;;;;;;;31.27;18.20;;;;;;;;;;10451674;28;20083;-72
2022/01/25 09:40:51;;;;;;;31.23;18.85;;;;;;;;;;10478193;28;20068;-70
2022/01/25 09:45:55;;;;;;;33.85;18.42;;;;;;;;;;10465989;28;20049;-68
2022/01/25 09:50:59;;;;;;;38.10;19.80;;;;;;;;;;10441811;28;20037;-72
2022/01/25 09:56:02;;;;;;;36.97;19.20;;;;;;;;;;10475381;28;20078;-71
2022/01/25 10:01:07;;;;;;;32.50;17.60;;;;;;;;;;10476497;28;20099;-72
2022/01/25 10:06:15;;;;;;;39.85;20.08;;;;;;;;;;10463606;28;20091;-69
2022/01/25 10:11:19;;;;;;;33.58;16.67;;;;;;;;;;10488339;28;20048;-68
2022/01/25 10:16:30;;;;;;;39.65;17.17;;;;;;;;;;10462034;28;20049;-72
2022/01/25 10:21:35;;;;;;;34.10;19.38;;;;;;;;;;10437561;28;20085;-68
2022/01/25 10:26:40;;;;;;;30.30;16.60;;;;;;;;;;10474133;28;20055;-69
2022/01/25 10:31:45;;;;;;;35.67;19.45;;;;;;;;;;10482410;28;20045;-69
2022/01/25 10:36:49;;;;;;;;;;;;;;;;;;10474635;28;20090;-70
2022/01/25 10:41:51;;;;;;;37.03;19.73;;;;;;;;;;10474856;28;20223;-67
2022/01/25 10:46:56;;;;;;;32.65;16.08;;;;;;;;;;10475681;28;20056;-68
2022/01/25 10:52:00;;;;;;;29.30;15.63;;;;;;;;;;10474242;28;20260;-71
2022/01/25 10:57:02;;;;;;;33.92;17.65;;;;;;;;;;10474000;28;20057;-69
2022/01/25 11:02:09;;;;;;;35.05;17.58;;;;;;;;;;10474270;28;20049;-66
2022/01/25 11:07:14;;;;;;;37.33;19.45;;;;;;;;;;10472416;28;20458;-67
2022/01/25 11:12:19;;;;;;;42.95;20.45;;;;;;;;;;10473798;28;20048;-69
2022/01/25 11:17:25;;;;;;;67.38;28.65;;;;;;;;;;10473637;28;20295;-68
2022/01/25 11:22:29;;;;;;;38.03;19.40;;;;;;;;;;10486633;28;20083;-67
2022/01/25 11:27:32;;;;;;;40.35;20.27;;;;;;;;;;10473316;28;20041;-67
2022/01/25 11:37:48;;;;;;;45.92;19.00;;;;;;;;;;10915136;22;20087;-66
2022/01/25 11:42:55;;;;;;;34.60;18.52;;;;;;;;;;10308018;28;20264;-68
2022/01/25 11:47:58;;;;;;;34.63;19.30;;;;;;;;;;10323698;28;20063;-69
2022/01/25 11:53:07;;;;;;;32.00;17.92;;;;;;;;;;10308241;28;20061;-67
2022/01/25 11:58:11;;;;;;;35.47;18.23;;;;;;;;;;10322569;28;20093;-68
2022/01/25 12:03:26;;;;;;;35.30;19.98;;;;;;;;;;10309660;28;20285;-68
2022/01/25 12:08:51;;;;;;;33.58;18.42;;;;;;;;;;10321963;28;20241;-69
2022/01/25 12:14:10;;;;;;;29.37;17.20;;;;;;;;;;10309241;28;20384;-68
2022/01/25 12:19:14;;;;;;;35.88;20.05;;;;;;;;;;10323363;28;20101;-68
2022/01/25 12:24:22;;;;;;;35.25;19.08;;;;;;;;;;10308913;28;20053;-66
2022/01/25 12:29:36;;;;;;;32.58;18.20;;;;;;;;;;10323547;28;20076;-68
2022/01/25 12:34:57;;;;;;;33.25;18.83;;;;;;;;;;10327077;28;20042;-69
2022/01/25 12:40:33;;;;;;;28.80;16.23;;;;;;;;;;10322523;28;20144;-68
2022/01/25 12:45:40;;;;;;;32.90;17.45;;;;;;;;;;10330818;28;20047;-68
2022/01/25 12:50:45;;;;;;;33.78;17.52;;;;;;;;;;10330199;28;20054;-69
2022/01/25 12:55:52;;;;;;;36.42;20.35;;;;;;;;;;10330597;28;20042;-68
2022/01/25 13:00:58;;;;;;;24.63;15.88;;;;;;;;;;10330460;28;20050;-69
2022/01/25 13:06:06;;;;;;;31.13;17.60;;;;;;;;;;10328875;28;20065;-67
2022/01/25 13:11:29;;;;;;;33.13;18.17;;;;;;;;;;10328894;28;20137;-72
2022/01/25 13:16:41;;;;;;;28.80;14.52;;;;;;;;;;10315020;28;20050;-66
2022/01/25 13:21:46;;;;;;;28.67;15.30;;;;;;;;;;10316207;28;20096;-69
2022/01/25 13:26:52;;;;;;;31.42;15.80;;;;;;;;;;10315037;28;20187;-68
2022/01/25 13:32:10;;;;;;;30.90;15.23;;;;;;;;;;10328338;28;20058;-67
2022/01/25 13:37:20;;;;;;;29.30;14.65;;;;;;;;;;10300438;28;20066;-67
2022/01/25 13:42:31;;;;;;;34.67;17.27;;;;;;;;;;10327469;28;20054;-67
2022/01/25 13:47:33;;;;;;;29.05;15.25;;;;;;;;;;10328525;28;20050;-68
2022/01/25 13:52:36;;;;;;;36.95;16.42;;;;;;;;;;10313709;28;20046;-68
2022/01/25 13:57:39;;;;;;;29.65;14.63;;;;;;;;;;10314915;28;20043;-66
2022/01/25 14:02:42;;;;;;;31.13;16.23;;;;;;;;;;10291825;28;20058;-68
2022/01/25 14:07:48;;;;;;;32.97;15.32;;;;;;;;;;10315246;28;20066;-67
2022/01/25 14:23:34;;;;;;;32.85;16.58;;;;;;;;;;10328525;28;20109;-66
2022/01/25 14:28:42;;;;;;;38.95;18.98;;;;;;;;;;10315781;28;20047;-71
2022/01/25 14:33:51;;;;;;;55.53;24.08;;;;;;;;;;10315797;28;20062;-70
2022/01/25 14:38:56;;;;;;;49.42;23.95;;;;;;;;;;10315461;28;20070;-68
2022/01/25 14:44:03;;;;;;;51.37;25.80;;;;;;;;;;10315991;28;20035;-67
2022/01/25 14:49:12;;;;;;;42.50;23.30;;;;;;;;;;10315758;28;20313;-68
2022/01/25 14:54:17;;;;;;;47.55;23.60;;;;;;;;;;10328713;28;20074;-70
2022/01/25 14:59:24;;;;;;;47.38;22.92;;;;;;;;;;10314467;28;20085;-67
2022/01/25 15:04:30;;;;;;;43.90;23.45;;;;;;;;;;10328301;28;20051;-69
2022/01/25 15:09:33;;;;;;;48.60;25.13;;;;;;;;;;10328248;28;20054;-70
2022/01/25 15:14:49;;;;;;;50.65;24.60;;;;;;;;;;10313775;28;20051;-68
2022/01/25 15:19:51;;;;;;;46.53;23.83;;;;;;;;;;10326962;28;20070;-68
2022/01/25 15:24:54;;;;;;;45.88;23.33;;;;;;;;;;10315106;28;20269;-69
2022/01/25 15:30:01;;;;;;;41.65;22.30;;;;;;;;;;10314131;28;20065;-67
2022/01/25 15:35:04;;;;;;;40.13;19.83;;;;;;;;;;10323843;28;20321;-66
2022/01/25 15:40:08;;;;;;;38.45;20.02;;;;;;;;;;10313941;28;20093;-66
2022/01/25 15:45:24;;;;;;;43.67;20.83;;;;;;;;;;10314072;28;20385;-67
2022/01/25 15:50:28;;;;;;;40.20;19.48;;;;;;;;;;10326172;28;20089;-69
2022/01/25 15:55:30;;;;;;;38.30;17.63;;;;;;;;;;10312942;28;20058;-67
2022/01/25 16:00:34;;;;;;;31.90;15.93;;;;;;;;;;10313216;28;20050;-67
2022/01/25 16:05:38;;;;;;;32.60;13.82;;;;;;;;;;10313934;28;20034;-68
2022/01/25 16:10:40;;;;;;;31.55;15.38;;;;;;;;;;10313889;28;20042;-68
2022/01/25 16:15:44;;;;;;;43.85;18.55;;;;;;;;;;10313987;28;20054;-68
2022/01/25 16:20:46;;;;;;;63.55;24.58;;;;;;;;;;10313499;28;20043;-70
2022/01/25 16:25:49;;;;;;;46.72;25.33;;;;;;;;;;10313565;28;20043;-69
2022/01/25 16:30:59;;;;;;;47.10;25.85;;;;;;;;;;10313668;28;20106;-68
2022/01/25 16:36:01;;;;;;;55.97;29.27;;;;;;;;;;10321324;28;20051;-69
2022/01/25 16:41:04;;;;;;;50.88;28.00;;;;;;;;;;10312388;28;20240;-69
2022/01/25 16:46:08;;;;;;;57.03;30.15;;;;;;;;;;10312729;28;20050;-68
2022/01/25 16:51:11;;;;;;;49.20;27.98;;;;;;;;;;10308353;28;20062;-69
2022/01/25 16:56:14;;;;;;;38.38;20.25;;;;;;;;;;10311800;28;20053;-69
2022/01/25 17:01:17;;;;;;;28.67;16.02;;;;;;;;;;10310972;28;20058;-69
2022/01/25 17:06:20;;;;;;;27.33;13.70;;;;;;;;;;10311757;28;20050;-69
2022/01/25 17:11:22;;;;;;;33.92;17.70;;;;;;;;;;10312192;28;20110;-68
2022/01/25 17:16:26;;;;;;;32.17;16.80;;;;;;;;;;10313772;28;20333;-66
2022/01/25 17:21:28;;;;;;;30.73;16.27;;;;;;;;;;10318767;28;20046;-69
2022/01/25 17:26:32;;;;;;;42.38;24.20;;;;;;;;;;10319110;28;20043;-68
2022/01/25 17:31:37;;;;;;;42.45;21.88;;;;;;;;;;10318131;28;20078;-69
2022/01/25 17:36:41;;;;;;;35.17;16.17;;;;;;;;;;10318708;28;20253;-69
2022/01/25 17:41:44;;;;;;;33.22;16.55;;;;;;;;;;10317550;28;20066;-69
2022/01/25 17:46:48;;;;;;;38.17;17.73;;;;;;;;;;10317916;28;20057;-69
2022/01/25 17:51:51;;;;;;;44.03;20.60;;;;;;;;;;10317538;28;20093;-69
2022/01/25 17:56:53;;;;;;;38.63;19.33;;;;;;;;;;10318102;28;20050;-69
2022/01/25 18:01:59;;;;;;;43.17;19.70;;;;;;;;;;10317106;28;20043;-66
2022/01/25 18:07:01;;;;;;;45.70;21.52;;;;;;;;;;10329264;28;20097;-68
2022/01/25 18:12:04;;;;;;;54.80;22.38;;;;;;;;;;10315192;28;20050;-68
2022/01/25 18:17:08;;;;;;;43.63;19.88;;;;;;;;;;10316215;28;20283;-68
2022/01/25 18:22:12;;;;;;;80.50;28.75;;;;;;;;;;10316428;28;20156;-69
2022/01/25 18:27:15;;;;;;;70.13;27.05;;;;;;;;;;10315364;28;20042;-67
2022/01/25 18:32:19;;;;;;;41.78;19.35;;;;;;;;;;10313446;28;20261;-66
2022/01/25 18:37:22;;;;;;;42.47;18.60;;;;;;;;;;10312904;28;20059;-67
2022/01/25 18:42:25;;;;;;;56.67;23.42;;;;;;;;;;10314701;28;20063;-67
2022/01/25 18:47:28;;;;;;;46.78;20.45;;;;;;;;;;10314513;28;20038;-66
2022/01/25 18:52:31;;;;;;;44.47;19.83;;;;;;;;;;10312120;28;20086;-68
2022/01/25 18:57:35;;;;;;;62.67;29.35;;;;;;;;;;10311838;28;20085;-67
2022/01/25 19:02:41;;;;;;;59.22;24.98;;;;;;;;;;10310881;28;20329;-67
2022/01/25 19:07:43;;;;;;;38.95;20.02;;;;;;;;;;10325503;28;20058;-69
2022/01/25 19:12:46;;;;;;;35.90;18.02;;;;;;;;;;10311329;28;20075;-68
2022/01/25 19:17:50;;;;;;;38.95;19.10;;;;;;;;;;10311607;28;20054;-66
2022/01/25 19:22:53;;;;;;;45.50;20.80;;;;;;;;;;10311118;28;20042;-69
2022/01/25 19:27:56;;;;;;;33.83;17.58;;;;;;;;;;10311016;28;20039;-66
2022/01/25 19:33:02;;;;;;;39.28;18.88;;;;;;;;;;10311363;28;20038;-69
2022/01/25 19:38:13;;;;;;;29.88;14.68;;;;;;;;;;10312695;28;20317;-68
2022/01/25 19:43:18;;;;;;;35.63;17.15;;;;;;;;;;10309870;28;20109;-69
2022/01/25 19:48:22;;;;;;;33.42;15.63;;;;;;;;;;10310657;28;20043;-68
2022/01/25 19:53:24;;;;;;;31.55;15.60;;;;;;;;;;10310370;28;20058;-67
2022/01/25 19:58:27;;;;;;;34.85;15.98;;;;;;;;;;10310796;28;20047;-69
2022/01/25 20:03:31;;;;;;;25.38;13.57;;;;;;;;;;10307566;28;20054;-68
2022/01/25 20:08:35;;;;;;;27.55;13.73;;;;;;;;;;10310153;28;20050;-67
2022/01/25 20:13:38;;;;;;;23.67;12.65;;;;;;;;;;10310832;28;20035;-69
2022/01/25 20:18:43;;;;;;;23.27;11.52;;;;;;;;;;10310926;28;20054;-66
2022/01/25 20:23:57;;;;;;;25.08;11.90;;;;;;;;;;10309293;28;20055;-68
2022/01/25 20:29:07;;;;;;;21.67;11.07;;;;;;;;;;10321374;28;20326;-67
2022/01/25 20:34:14;;;;;;;18.92;9.38;;;;;;;;;;10310270;28;20058;-67
2022/01/25 20:39:17;;;;;;;23.92;13.23;;;;;;;;;;10316630;28;20114;-68
2022/01/25 20:44:20;;;;;;;24.52;12.88;;;;;;;;;;10309870;28;20054;-67
2022/01/25 20:49:24;;;;;;;29.08;14.57;;;;;;;;;;10309932;28;20049;-68
2022/01/25 20:54:26;;;;;;;23.92;12.85;;;;;;;;;;10316833;28;20043;-69
2022/01/25 20:59:31;;;;;;;26.40;10.55;;;;;;;;;;10316344;28;20042;-69
2022/01/25 21:09:54;;;;;;;11.57;6.18;;;;;;;;;;10329880;28;20042;-69
2022/01/25 21:14:57;;;;;;;12.93;5.68;;;;;;;;;;10315798;28;20051;-68
2022/01/25 21:20:01;;;;;;;19.60;9.32;;;;;;;;;;10316458;28;20265;-70
2022/01/25 21:25:04;;;;;;;18.00;6.65;;;;;;;;;;10316119;28;20043;-68
2022/01/25 21:30:08;;;;;;;16.30;7.35;;;;;;;;;;10316009;28;20230;-69
2022/01/25 21:35:12;;;;;;;18.27;7.97;;;;;;;;;;10315792;28;20035;-69
2022/01/25 21:40:15;;;;;;;29.23;12.85;;;;;;;;;;10314922;28;20062;-67
2022/01/25 21:45:18;;;;;;;35.92;14.18;;;;;;;;;;10314476;28;20135;-68
2022/01/25 21:50:22;;;;;;;57.95;22.73;;;;;;;;;;10312539;28;20183;-68
2022/01/25 21:55:25;;;;;;;42.97;15.15;;;;;;;;;;10314775;28;20057;-67
2022/01/25 22:00:29;;;;;;;38.30;13.75;;;;;;;;;;10314778;28;20230;-66
2022/01/25 22:05:35;;;;;;;33.30;12.82;;;;;;;;;;10314098;28;20066;-68
2022/01/25 22:10:45;;;;;;;20.60;10.00;;;;;;;;;;10328542;28;20274;-68
2022/01/25 22:15:47;;;;;;;41.40;18.58;;;;;;;;;;10326642;28;20038;-69
2022/01/25 22:20:51;;;;;;;54.33;33.35;;;;;;;;;;10314783;28;20160;-69
2022/01/25 22:25:54;;;;;;;58.63;31.65;;;;;;;;;;10287969;28;20070;-67
2022/01/25 22:30:58;;;;;;;52.63;28.35;;;;;;;;;;10312619;28;20061;-68
2022/01/25 22:36:01;;;;;;;50.53;24.92;;;;;;;;;;10312667;28;20242;-68
2022/01/25 22:41:04;;;;;;;54.35;26.50;;;;;;;;;;10310257;28;20050;-66
2022/01/25 22:46:07;;;;;;;64.47;26.65;;;;;;;;;;10303243;28;20050;-66
2022/01/25 22:51:12;;;;;;;57.03;25.15;;;;;;;;;;10273486;28;20361;-69
2022/01/25 22:56:15;;;;;;;56.15;23.38;;;;;;;;;;10291202;28;20049;-66
2022/01/25 23:01:18;;;;;;;47.08;25.33;;;;;;;;;;10313065;28;20325;-67
2022/01/25 23:06:21;;;;;;;36.70;20.90;;;;;;;;;;10313109;28;20042;-67
2022/01/25 23:11:24;;;;;;;31.95;14.48;;;;;;;;;;10312695;28;20277;-67
2022/01/25 23:16:39;;;;;;;31.42;13.45;;;;;;;;;;10312762;28;20238;-68
2022/01/25 23:21:43;;;;;;;32.83;12.88;;;;;;;;;;10325702;28;20055;-67
2022/01/25 23:26:45;;;;;;;39.70;13.18;;;;;;;;;;10311857;28;20051;-66
2022/01/25 23:31:55;;;;;;;30.38;12.55;;;;;;;;;;10312086;28;20046;-67
2022/01/25 23:37:02;;;;;;;24.58;10.13;;;;;;;;;;10310424;28;20050;-66
2022/01/25 23:42:10;;;;;;;21.90;9.50;;;;;;;;;;10310633;28;20050;-66
2022/01/25 23:47:23;;;;;;;20.27;9.95;;;;;;;;;;10324706;28;20353;-66
